createdAt,value
2018-07-19T00:02:54.840Z,19.40
2018-07-19T00:07:48.098Z,19.20
2018-07-19T00:12:41.349Z,19.10
2018-07-19T00:17:34.837Z,18.90
2018-07-19T00:22:28.217Z,18.90
2018-07-19T00:27:21.457Z,18.80
2018-07-19T00:37:07.986Z,18.80
2018-07-19T00:42:01.264Z,18.90
2018-07-19T00:46:54.519Z,19.00
2018-07-19T00:51:47.763Z,18.90
2018-07-19T00:56:41.057Z,18.80
2018-07-19T01:01:34.324Z,18.70
2018-07-19T01:06:27.643Z,18.60
2018-07-19T01:11:20.982Z,18.60
2018-07-19T01:16:14.203Z,18.70
2018-07-19T01:21:07.465Z,18.70
2018-07-19T01:26:00.673Z,18.80
2018-07-19T01:30:53.918Z,18.80
2018-07-19T01:35:47.152Z,18.70
2018-07-19T01:40:40.387Z,18.70
2018-07-19T01:45:33.627Z,18.60
2018-07-19T01:50:26.890Z,18.60
2018-07-19T01:55:20.168Z,18.40
2018-07-19T02:00:13.477Z,18.30
2018-07-19T02:05:06.759Z,18.20
2018-07-19T02:10:00.015Z,18.20
2018-07-19T02:14:53.275Z,18.30
2018-07-19T02:19:46.582Z,18.30
2018-07-19T02:24:39.837Z,18.20
2018-07-19T02:29:33.209Z,18.20
2018-07-19T02:34:26.497Z,18.10
2018-07-19T02:39:19.817Z,17.90
2018-07-19T02:44:13.837Z,18.00
2018-07-19T02:49:07.421Z,17.90
2018-07-19T02:54:00.655Z,17.80
2018-07-19T03:03:47.082Z,17.70
2018-07-19T03:08:40.404Z,17.60
2018-07-19T03:13:33.650Z,17.60
2018-07-19T03:18:26.919Z,17.60
2018-07-19T03:23:20.166Z,17.60
2018-07-19T03:28:13.430Z,17.50
2018-07-19T03:38:00.071Z,17.30
2018-07-19T03:42:53.444Z,17.10
2018-07-19T03:47:46.689Z,17.00
2018-07-19T03:57:33.131Z,16.80
2018-07-19T04:02:26.416Z,16.80
2018-07-19T04:07:19.659Z,16.70
2018-07-19T04:12:12.933Z,16.70
2018-07-19T04:17:06.208Z,16.70
2018-07-19T04:21:59.469Z,16.80
2018-07-19T04:26:52.751Z,16.90
2018-07-19T04:31:45.990Z,17.00
2018-07-19T04:36:39.209Z,17.10
2018-07-19T04:41:32.479Z,17.20
2018-07-19T04:46:25.709Z,17.30
2018-07-19T04:51:18.956Z,17.40
2018-07-19T04:56:12.210Z,17.70
2018-07-19T05:01:05.539Z,17.80
2018-07-19T05:05:58.781Z,18.20
2018-07-19T05:15:45.133Z,19.70
2018-07-19T05:20:38.338Z,21.20
2018-07-19T05:25:31.607Z,22.10
2018-07-19T05:30:24.873Z,23.10
2018-07-19T05:35:18.106Z,24.00
2018-07-19T05:40:11.377Z,24.30
2018-07-19T05:45:04.819Z,24.00
2018-07-19T05:49:58.078Z,24.90
2018-07-19T05:54:51.321Z,25.50
2018-07-19T05:59:44.573Z,25.90
2018-07-19T06:04:38.447Z,25.90
2018-07-19T06:09:31.736Z,26.10
2018-07-19T06:14:25.013Z,26.30
2018-07-19T06:19:18.261Z,26.00
2018-07-19T06:24:11.519Z,26.30
2018-07-19T06:29:04.775Z,26.90
2018-07-19T06:33:58.032Z,27.30
2018-07-19T06:48:37.696Z,27.70
2018-07-19T06:53:30.991Z,27.50
2018-07-19T06:58:24.246Z,27.10
2018-07-19T07:03:17.570Z,26.60
2018-07-19T07:13:03.991Z,25.50
2018-07-19T07:17:57.261Z,25.40
2018-07-19T07:22:50.794Z,25.60
2018-07-19T07:32:37.293Z,26.20
2018-07-19T07:37:30.521Z,27.10
2018-07-19T07:42:23.809Z,27.50
2018-07-19T07:47:17.059Z,27.70
2018-07-19T07:52:10.335Z,29.00
2018-07-19T07:57:03.588Z,30.20
2018-07-19T08:01:56.901Z,28.90
2018-07-19T08:06:50.236Z,30.10
2018-07-19T08:16:36.694Z,28.40
2018-07-19T08:21:29.935Z,29.80
2018-07-19T08:26:23.247Z,32.40
2018-07-19T08:36:10.447Z,32.00
2018-07-19T08:41:03.699Z,31.90
2018-07-19T08:45:56.930Z,30.30
2018-07-19T08:50:50.237Z,30.50
2018-07-19T08:55:43.462Z,30.50
2018-07-19T09:00:36.723Z,32.60
2018-07-19T09:05:30.031Z,33.40
2018-07-19T09:10:23.274Z,33.00
2018-07-19T09:15:16.544Z,32.00
2018-07-19T09:20:09.826Z,32.70
2018-07-19T09:25:03.135Z,33.10
2018-07-19T09:29:56.393Z,33.10
2018-07-19T09:34:49.841Z,34.10
2018-07-19T09:39:43.076Z,33.20
2018-07-19T09:44:36.320Z,32.10
2018-07-19T09:49:29.538Z,30.90
2018-07-19T09:54:39.998Z,32.00
2018-07-19T09:59:33.283Z,31.80
2018-07-19T10:04:26.493Z,33.70
2018-07-19T10:09:19.859Z,34.50
2018-07-19T10:14:13.155Z,32.60
2018-07-19T10:19:06.426Z,32.90
2018-07-19T10:23:59.717Z,32.20
2018-07-19T10:28:52.960Z,32.40
2018-07-19T10:33:46.235Z,32.00
2018-07-19T10:38:39.510Z,31.60
2018-07-19T10:43:32.823Z,31.10
2018-07-19T10:48:26.129Z,30.70
2018-07-19T10:53:19.633Z,29.70
2018-07-19T10:58:12.887Z,29.80
2018-07-19T11:03:06.465Z,29.80
2018-07-19T11:07:59.744Z,30.60
2018-07-19T11:12:52.945Z,31.20
2018-07-19T11:17:46.190Z,30.60
2018-07-19T11:22:39.469Z,30.50
2018-07-19T11:27:32.707Z,30.40
2018-07-19T11:32:25.905Z,30.50
2018-07-19T11:37:19.224Z,31.20
2018-07-19T11:51:59.007Z,29.50
2018-07-19T11:56:52.238Z,29.00
2018-07-19T12:01:45.516Z,28.90
2018-07-19T12:06:38.815Z,29.80
2018-07-19T12:11:32.030Z,30.70
2018-07-19T12:21:18.583Z,30.50
2018-07-19T12:26:11.819Z,29.80
2018-07-19T12:31:05.095Z,30.00
2018-07-19T12:35:58.377Z,29.40
2018-07-19T12:40:51.640Z,29.40
2018-07-19T12:45:44.890Z,29.70
2018-07-19T12:50:38.135Z,30.10
2018-07-19T12:55:31.362Z,30.40
2018-07-19T13:00:24.594Z,30.60
2018-07-19T13:10:11.265Z,30.20
2018-07-19T13:15:06.112Z,29.80
2018-07-19T13:19:59.311Z,30.40
2018-07-19T13:24:52.621Z,30.80
2018-07-19T13:29:45.850Z,30.50
2018-07-19T13:34:39.107Z,30.40
2018-07-19T13:39:32.491Z,30.40
2018-07-19T13:44:25.855Z,30.40
2018-07-19T13:49:19.165Z,30.80
2018-07-19T13:54:19.339Z,31.20
2018-07-19T13:59:13.201Z,30.70
2018-07-19T14:04:06.916Z,30.40
2018-07-19T14:09:00.202Z,30.30
2018-07-19T14:13:53.424Z,30.80
2018-07-19T14:18:46.671Z,31.00
2018-07-19T14:23:39.902Z,31.30
2018-07-19T14:28:33.139Z,31.20
2018-07-19T14:33:26.365Z,31.00
2018-07-19T14:38:19.545Z,30.80
2018-07-19T14:43:12.780Z,30.40
2018-07-19T14:48:06.067Z,30.40
2018-07-19T14:57:52.553Z,30.60
2018-07-19T15:02:45.812Z,31.20
2018-07-19T15:07:39.042Z,30.80
2018-07-19T15:12:32.297Z,31.60
2018-07-19T15:17:25.546Z,32.30
2018-07-19T15:22:18.797Z,31.60
2018-07-19T15:27:12.400Z,31.90
2018-07-19T15:32:05.716Z,31.30
2018-07-19T15:36:58.989Z,30.80
2018-07-19T15:41:52.216Z,31.10
2018-07-19T15:46:45.461Z,31.10
2018-07-19T15:51:38.723Z,31.00
2018-07-19T15:56:31.957Z,30.40
2018-07-19T16:01:25.271Z,30.30
2018-07-19T16:06:18.593Z,30.30
2018-07-19T16:11:11.806Z,30.30
2018-07-19T16:16:05.161Z,30.50
2018-07-19T16:20:58.403Z,30.60
2018-07-19T16:30:44.794Z,30.10
2018-07-19T16:35:38.014Z,30.20
2018-07-19T16:45:24.432Z,29.80
2018-07-19T16:50:17.701Z,29.40
2018-07-19T16:55:10.937Z,29.40
2018-07-19T17:00:05.205Z,29.20
2018-07-19T17:09:51.602Z,28.60
2018-07-19T17:14:44.844Z,28.70
2018-07-19T17:19:38.080Z,28.80
2018-07-19T17:24:31.347Z,28.70
2018-07-19T17:29:24.548Z,28.60
2018-07-19T17:34:17.908Z,28.60
2018-07-19T17:39:12.549Z,28.90
2018-07-19T17:44:05.851Z,29.20
2018-07-19T17:48:59.097Z,28.90
2018-07-19T17:53:52.304Z,28.90
2018-07-19T17:58:45.523Z,28.80
2018-07-19T18:03:38.764Z,28.70
2018-07-19T18:08:32.021Z,28.70
2018-07-19T18:13:25.249Z,28.70
2018-07-19T18:18:18.667Z,28.40
2018-07-19T18:23:11.956Z,28.20
2018-07-19T18:28:05.650Z,28.00
2018-07-19T18:32:58.901Z,27.60
2018-07-19T18:37:52.133Z,27.70
2018-07-19T18:47:38.575Z,27.30
2018-07-19T18:52:31.818Z,27.10
2018-07-19T18:57:25.041Z,26.80
2018-07-19T19:02:18.279Z,26.70
2018-07-19T19:07:11.504Z,26.50
2018-07-19T19:12:04.802Z,26.30
2018-07-19T19:16:58.067Z,26.10
2018-07-19T19:21:51.436Z,26.00
2018-07-19T19:26:44.668Z,25.70
2018-07-19T19:31:37.921Z,25.50
2018-07-19T19:36:31.469Z,25.30
2018-07-19T19:41:24.723Z,25.20
2018-07-19T19:51:11.253Z,24.70
2018-07-19T19:56:04.525Z,24.50
2018-07-19T20:00:57.888Z,24.40
2018-07-19T20:05:51.219Z,24.30
2018-07-19T20:10:44.466Z,24.00
2018-07-19T20:15:37.727Z,23.80
2018-07-19T20:20:31.025Z,23.70
2018-07-19T20:30:17.498Z,23.40
2018-07-19T20:35:10.742Z,23.20
2018-07-19T20:44:57.282Z,23.00
2018-07-19T20:49:50.542Z,22.80
2018-07-19T20:54:43.758Z,22.70
2018-07-19T20:59:36.989Z,22.50
2018-07-19T21:04:30.505Z,22.50
2018-07-19T21:09:23.715Z,22.40
2018-07-19T21:14:16.972Z,22.30
2018-07-19T21:19:10.215Z,22.20
2018-07-19T21:24:03.433Z,22.10
2018-07-19T21:28:56.726Z,22.00
2018-07-19T21:33:49.963Z,21.90
2018-07-19T21:38:43.179Z,21.80
2018-07-19T21:43:36.417Z,21.90
2018-07-19T21:48:29.645Z,21.90
2018-07-19T21:53:22.921Z,21.90
2018-07-19T21:58:16.190Z,21.70
2018-07-19T22:03:09.473Z,21.70
2018-07-19T22:08:03.672Z,21.70
2018-07-19T22:12:56.926Z,21.60
2018-07-19T22:17:50.157Z,21.60
2018-07-19T22:22:43.451Z,21.60
2018-07-19T22:27:36.719Z,21.60
2018-07-19T22:32:30.354Z,21.50
2018-07-19T22:37:24.713Z,21.50
2018-07-19T22:42:17.967Z,21.50
2018-07-19T22:47:11.226Z,21.50
2018-07-19T22:56:57.667Z,21.40
2018-07-19T23:11:38.179Z,21.20
2018-07-19T23:16:31.482Z,21.20
2018-07-19T23:26:17.876Z,21.00
2018-07-19T23:31:11.152Z,20.90
2018-07-19T23:36:08.475Z,20.90
2018-07-19T23:41:04.592Z,20.90
2018-07-19T23:46:08.316Z,20.80
2018-07-19T23:51:01.560Z,20.70
2018-07-19T23:55:54.799Z,20.60
